sensor_id;sensor_type;location;lat;lon;timestamp;temperature;humidity
3017;DHT22;1518;52.408;13.060;2022-10-03T00:00:31;10.30;99.90
3017;DHT22;1518;52.408;13.060;2022-10-03T00:03:33;10.40;99.90
3017;DHT22;1518;52.408;13.060;2022-10-03T00:06:31;10.30;99.90
3017;DHT22;1518;52.408;13.060;2022-10-03T00:09:32;10.40;99.90
3017;DHT22;1518;52.408;13.060;2022-10-03T00:12:39;10.30;99.90
3017;DHT22;1518;52.408;13.060;2022-10-03T00:15:37;10.40;99.90
3017;DHT22;1518;52.408;13.060;2022-10-03T00:18:37;10.40;99.90
3017;DHT22;1518;52.408;13.060;2022-10-03T00:21:47;10.30;99.90
3017;DHT22;1518;52.408;13.060;2022-10-03T00:24:46;10.40;99.90
3017;DHT22;1518;52.408;13.060;2022-10-03T00:27:41;10.40;99.90
3017;DHT22;1518;52.408;13.060;2022-10-03T00:30:55;10.50;99.90
3017;DHT22;1518;52.408;13.060;2022-10-03T00:33:57;10.60;99.90
3017;DHT22;1518;52.408;13.060;2022-10-03T00:36:52;10.80;99.90
3017;DHT22;1518;52.408;13.060;2022-10-03T00:39:52;10.80;99.90
3017;DHT22;1518;52.408;13.060;2022-10-03T00:43:04;11.00;99.90
3017;DHT22;1518;52.408;13.060;2022-10-03T00:46:28;11.10;99.90
3017;DHT22;1518;52.408;13.060;2022-10-03T00:53:14;11.10;99.90
3017;DHT22;1518;52.408;13.060;2022-10-03T00:56:39;11.20;99.90
3017;DHT22;1518;52.408;13.060;2022-10-03T00:59:38;11.30;99.90
3017;DHT22;1518;52.408;13.060;2022-10-03T01:02:45;11.30;99.90
3017;DHT22;1518;52.408;13.060;2022-10-03T01:05:48;11.40;99.90
3017;DHT22;1518;52.408;13.060;2022-10-03T01:08:51;11.40;99.90
3017;DHT22;1518;52.408;13.060;2022-10-03T01:12:05;11.40;99.90
3017;DHT22;1518;52.408;13.060;2022-10-03T01:15:15;11.50;99.90
3017;DHT22;1518;52.408;13.060;2022-10-03T01:18:16;11.50;99.90
3017;DHT22;1518;52.408;13.060;2022-10-03T01:21:13;11.50;99.90
3017;DHT22;1518;52.408;13.060;2022-10-03T01:24:48;11.60;99.90
3017;DHT22;1518;52.408;13.060;2022-10-03T01:27:43;11.60;99.90
3017;DHT22;1518;52.408;13.060;2022-10-03T01:30:53;11.70;99.90
3017;DHT22;1518;52.408;13.060;2022-10-03T01:33:47;11.70;99.90
3017;DHT22;1518;52.408;13.060;2022-10-03T01:36:46;11.70;99.90
3017;DHT22;1518;52.408;13.060;2022-10-03T01:39:43;11.60;99.90
3017;DHT22;1518;52.408;13.060;2022-10-03T01:42:38;11.70;99.90
3017;DHT22;1518;52.408;13.060;2022-10-03T01:45:30;11.60;99.90
3017;DHT22;1518;52.408;13.060;2022-10-03T01:48:30;11.70;99.90
3017;DHT22;1518;52.408;13.060;2022-10-03T01:51:23;11.70;99.90
3017;DHT22;1518;52.408;13.060;2022-10-03T01:54:19;11.70;99.90
3017;DHT22;1518;52.408;13.060;2022-10-03T01:57:16;11.70;99.90
3017;DHT22;1518;52.408;13.060;2022-10-03T02:00:11;11.70;99.90
3017;DHT22;1518;52.408;13.060;2022-10-03T02:03:06;11.70;99.90
3017;DHT22;1518;52.408;13.060;2022-10-03T02:06:02;11.60;99.90
3017;DHT22;1518;52.408;13.060;2022-10-03T02:08:57;11.50;99.90
3017;DHT22;1518;52.408;13.060;2022-10-03T02:11:59;11.40;99.90
3017;DHT22;1518;52.408;13.060;2022-10-03T02:14:57;11.40;99.90
3017;DHT22;1518;52.408;13.060;2022-10-03T02:17:53;11.50;99.90
3017;DHT22;1518;52.408;13.060;2022-10-03T02:20:47;11.50;99.90
3017;DHT22;1518;52.408;13.060;2022-10-03T02:23:42;11.50;99.90
3017;DHT22;1518;52.408;13.060;2022-10-03T02:27:04;11.50;99.90
3017;DHT22;1518;52.408;13.060;2022-10-03T02:30:12;10.30;99.90
3017;DHT22;1518;52.408;13.060;2022-10-03T02:36:42;11.50;99.90
3017;DHT22;1518;52.408;13.060;2022-10-03T02:39:55;11.50;99.90
3017;DHT22;1518;52.408;13.060;2022-10-03T02:43:11;11.60;99.90
3017;DHT22;1518;52.408;13.060;2022-10-03T02:46:34;11.60;99.90
3017;DHT22;1518;52.408;13.060;2022-10-03T02:49:54;11.60;99.90
3017;DHT22;1518;52.408;13.060;2022-10-03T02:53:06;11.60;99.90
3017;DHT22;1518;52.408;13.060;2022-10-03T02:56:29;11.60;99.90
3017;DHT22;1518;52.408;13.060;2022-10-03T03:16:45;11.40;99.90
3017;DHT22;1518;52.408;13.060;2022-10-03T03:20:02;11.40;99.90
3017;DHT22;1518;52.408;13.060;2022-10-03T03:23:09;11.30;99.90
3017;DHT22;1518;52.408;13.060;2022-10-03T03:26:12;11.30;99.90
3017;DHT22;1518;52.408;13.060;2022-10-03T03:29:15;11.30;99.90
3017;DHT22;1518;52.408;13.060;2022-10-03T03:32:14;11.30;99.90
3017;DHT22;1518;52.408;13.060;2022-10-03T03:35:13;11.30;99.90
3017;DHT22;1518;52.408;13.060;2022-10-03T03:38:15;11.30;99.90
3017;DHT22;1518;52.408;13.060;2022-10-03T03:41:20;11.30;99.90
3017;DHT22;1518;52.408;13.060;2022-10-03T03:44:29;11.30;99.90
3017;DHT22;1518;52.408;13.060;2022-10-03T03:47:42;11.30;99.90
3017;DHT22;1518;52.408;13.060;2022-10-03T03:50:45;11.20;99.90
3017;DHT22;1518;52.408;13.060;2022-10-03T03:53:58;11.20;99.90
3017;DHT22;1518;52.408;13.060;2022-10-03T03:57:14;11.20;99.90
3017;DHT22;1518;52.408;13.060;2022-10-03T04:00:13;11.20;99.90
3017;DHT22;1518;52.408;13.060;2022-10-03T04:03:09;11.20;99.90
3017;DHT22;1518;52.408;13.060;2022-10-03T04:13:06;11.30;99.90
3017;DHT22;1518;52.408;13.060;2022-10-03T04:16:13;11.30;99.90
3017;DHT22;1518;52.408;13.060;2022-10-03T04:19:31;11.30;99.90
3017;DHT22;1518;52.408;13.060;2022-10-03T04:22:47;11.30;99.90
3017;DHT22;1518;52.408;13.060;2022-10-03T04:25:49;11.30;99.90
3017;DHT22;1518;52.408;13.060;2022-10-03T04:28:57;11.30;99.90
3017;DHT22;1518;52.408;13.060;2022-10-03T04:32:02;11.30;99.90
3017;DHT22;1518;52.408;13.060;2022-10-03T04:35:07;11.30;99.90
3017;DHT22;1518;52.408;13.060;2022-10-03T04:38:03;12.30;99.90
3017;DHT22;1518;52.408;13.060;2022-10-03T04:40:58;11.10;99.90
3017;DHT22;1518;52.408;13.060;2022-10-03T04:43:57;11.00;99.90
3017;DHT22;1518;52.408;13.060;2022-10-03T04:46:51;10.80;99.90
3017;DHT22;1518;52.408;13.060;2022-10-03T04:49:46;10.70;99.90
3017;DHT22;1518;52.408;13.060;2022-10-03T04:52:41;10.60;99.90
3017;DHT22;1518;52.408;13.060;2022-10-03T04:55:39;10.50;99.90
3017;DHT22;1518;52.408;13.060;2022-10-03T04:58:35;10.50;99.90
3017;DHT22;1518;52.408;13.060;2022-10-03T05:01:27;10.40;99.90
3017;DHT22;1518;52.408;13.060;2022-10-03T05:04:24;10.30;99.90
3017;DHT22;1518;52.408;13.060;2022-10-03T05:07:23;10.50;99.90
3017;DHT22;1518;52.408;13.060;2022-10-03T05:10:39;10.50;99.90
3017;DHT22;1518;52.408;13.060;2022-10-03T05:13:41;10.50;99.90
3017;DHT22;1518;52.408;13.060;2022-10-03T05:16:39;10.50;99.90
3017;DHT22;1518;52.408;13.060;2022-10-03T05:19:41;10.60;99.90
3017;DHT22;1518;52.408;13.060;2022-10-03T05:22:40;10.70;99.90
3017;DHT22;1518;52.408;13.060;2022-10-03T05:25:39;10.80;99.90
3017;DHT22;1518;52.408;13.060;2022-10-03T05:28:36;11.00;99.90
3017;DHT22;1518;52.408;13.060;2022-10-03T05:31:34;11.10;99.90
3017;DHT22;1518;52.408;13.060;2022-10-03T05:34:33;11.20;99.90
3017;DHT22;1518;52.408;13.060;2022-10-03T05:37:37;11.20;99.90
3017;DHT22;1518;52.408;13.060;2022-10-03T05:40:30;11.30;99.90
3017;DHT22;1518;52.408;13.060;2022-10-03T05:43:30;11.30;99.90
3017;DHT22;1518;52.408;13.060;2022-10-03T05:46:38;11.30;99.90
3017;DHT22;1518;52.408;13.060;2022-10-03T05:49:48;11.30;99.90
3017;DHT22;1518;52.408;13.060;2022-10-03T05:56:07;11.30;99.90
3017;DHT22;1518;52.408;13.060;2022-10-03T05:59:49;11.30;99.90
3017;DHT22;1518;52.408;13.060;2022-10-03T06:02:51;11.40;99.90
3017;DHT22;1518;52.408;13.060;2022-10-03T06:05:56;11.40;99.90
3017;DHT22;1518;52.408;13.060;2022-10-03T06:08:59;11.30;99.90
3017;DHT22;1518;52.408;13.060;2022-10-03T06:12:06;11.30;99.90
3017;DHT22;1518;52.408;13.060;2022-10-03T06:15:12;11.30;99.90
3017;DHT22;1518;52.408;13.060;2022-10-03T06:18:14;11.30;99.90
3017;DHT22;1518;52.408;13.060;2022-10-03T06:25:00;11.50;99.90
3017;DHT22;1518;52.408;13.060;2022-10-03T06:28:23;11.60;99.90
3017;DHT22;1518;52.408;13.060;2022-10-03T06:31:52;11.60;99.90
3017;DHT22;1518;52.408;13.060;2022-10-03T06:35:05;11.60;99.90
3017;DHT22;1518;52.408;13.060;2022-10-03T06:38:24;11.60;99.90
3017;DHT22;1518;52.408;13.060;2022-10-03T06:41:59;11.80;99.90
3017;DHT22;1518;52.408;13.060;2022-10-03T06:45:07;11.90;99.90
3017;DHT22;1518;52.408;13.060;2022-10-03T06:48:12;12.10;99.90
3017;DHT22;1518;52.408;13.060;2022-10-03T06:51:36;12.20;99.90
3017;DHT22;1518;52.408;13.060;2022-10-03T06:55:12;12.10;99.90
3017;DHT22;1518;52.408;13.060;2022-10-03T06:58:49;12.10;99.90
3017;DHT22;1518;52.408;13.060;2022-10-03T07:01:58;12.20;99.90
3017;DHT22;1518;52.408;13.060;2022-10-03T07:05:19;12.20;99.90
3017;DHT22;1518;52.408;13.060;2022-10-03T07:22:26;12.60;99.90
3017;DHT22;1518;52.408;13.060;2022-10-03T07:25:52;12.60;99.90
3017;DHT22;1518;52.408;13.060;2022-10-03T07:29:07;12.60;99.90
3017;DHT22;1518;52.408;13.060;2022-10-03T07:32:17;12.60;99.90
3017;DHT22;1518;52.408;13.060;2022-10-03T07:45:35;13.10;99.90
3017;DHT22;1518;52.408;13.060;2022-10-03T07:48:54;13.20;99.90
3017;DHT22;1518;52.408;13.060;2022-10-03T07:52:00;13.20;99.90
3017;DHT22;1518;52.408;13.060;2022-10-03T07:55:18;13.10;99.90
3017;DHT22;1518;52.408;13.060;2022-10-03T07:58:27;13.10;99.90
3017;DHT22;1518;52.408;13.060;2022-10-03T08:01:40;13.10;99.90
3017;DHT22;1518;52.408;13.060;2022-10-03T08:04:55;13.20;99.90
3017;DHT22;1518;52.408;13.060;2022-10-03T08:08:02;13.30;99.90
3017;DHT22;1518;52.408;13.060;2022-10-03T08:11:09;13.30;99.90
3017;DHT22;1518;52.408;13.060;2022-10-03T08:14:08;13.30;99.90
3017;DHT22;1518;52.408;13.060;2022-10-03T08:17:36;13.30;99.90
3017;DHT22;1518;52.408;13.060;2022-10-03T08:20:40;13.30;99.90
3017;DHT22;1518;52.408;13.060;2022-10-03T08:23:58;13.40;99.90
3017;DHT22;1518;52.408;13.060;2022-10-03T08:27:20;13.50;99.90
3017;DHT22;1518;52.408;13.060;2022-10-03T08:30:34;13.60;99.90
3017;DHT22;1518;52.408;13.060;2022-10-03T08:33:46;13.60;99.90
3017;DHT22;1518;52.408;13.060;2022-10-03T08:37:07;13.40;99.90
3017;DHT22;1518;52.408;13.060;2022-10-03T08:44:02;13.50;99.90
3017;DHT22;1518;52.408;13.060;2022-10-03T08:47:24;13.80;99.90
3017;DHT22;1518;52.408;13.060;2022-10-03T08:50:25;14.00;99.90
3017;DHT22;1518;52.408;13.060;2022-10-03T08:53:45;14.00;99.90
3017;DHT22;1518;52.408;13.060;2022-10-03T08:57:02;14.00;99.90
3017;DHT22;1518;52.408;13.060;2022-10-03T09:00:14;13.90;99.90
3017;DHT22;1518;52.408;13.060;2022-10-03T09:06:56;14.10;99.90
3017;DHT22;1518;52.408;13.060;2022-10-03T09:10:26;14.20;99.90
3017;DHT22;1518;52.408;13.060;2022-10-03T09:13:48;14.30;99.90
3017;DHT22;1518;52.408;13.060;2022-10-03T09:17:00;14.40;99.90
3017;DHT22;1518;52.408;13.060;2022-10-03T09:20:18;14.70;99.90
3017;DHT22;1518;52.408;13.060;2022-10-03T09:23:34;14.70;99.90
3017;DHT22;1518;52.408;13.060;2022-10-03T09:27:00;14.80;99.90
3017;DHT22;1518;52.408;13.060;2022-10-03T09:30:07;14.80;99.90
3017;DHT22;1518;52.408;13.060;2022-10-03T09:33:39;14.90;99.90
3017;DHT22;1518;52.408;13.060;2022-10-03T09:40:36;14.70;
3017;DHT22;1518;52.408;13.060;2022-10-03T09:43:55;14.80;99.90
3017;DHT22;1518;52.408;13.060;2022-10-03T09:46:59;15.00;99.90
3017;DHT22;1518;52.408;13.060;2022-10-03T09:50:31;15.20;99.90
3017;DHT22;1518;52.408;13.060;2022-10-03T10:00:26;15.20;99.90
3017;DHT22;1518;52.408;13.060;2022-10-03T10:03:42;15.20;99.90
3017;DHT22;1518;52.408;13.060;2022-10-03T10:06:47;15.30;99.90
3017;DHT22;1518;52.408;13.060;2022-10-03T10:09:55;15.40;99.90
3017;DHT22;1518;52.408;13.060;2022-10-03T10:13:19;15.50;99.90
3017;DHT22;1518;52.408;13.060;2022-10-03T10:16:27;15.40;99.90
3017;DHT22;1518;52.408;13.060;2022-10-03T10:19:37;15.60;99.90
3017;DHT22;1518;52.408;13.060;2022-10-03T10:29:32;15.80;99.90
3017;DHT22;1518;52.408;13.060;2022-10-03T10:36:42;15.70;99.90
3017;DHT22;1518;52.408;13.060;2022-10-03T10:40:00;15.90;99.90
3017;DHT22;1518;52.408;13.060;2022-10-03T10:43:12;16.20;99.90
3017;DHT22;1518;52.408;13.060;2022-10-03T10:50:16;16.00;99.90
3017;DHT22;1518;52.408;13.060;2022-10-03T10:57:05;15.50;99.90
3017;DHT22;1518;52.408;13.060;2022-10-03T11:00:10;15.20;99.90
3017;DHT22;1518;52.408;13.060;2022-10-03T11:09:53;14.90;99.90
3017;DHT22;1518;52.408;13.060;2022-10-03T11:16:51;15.60;99.90
3017;DHT22;1518;52.408;13.060;2022-10-03T11:20:23;16.10;99.90
3017;DHT22;1518;52.408;13.060;2022-10-03T11:23:32;16.20;99.90
3017;DHT22;1518;52.408;13.060;2022-10-03T11:30:10;16.30;99.90
3017;DHT22;1518;52.408;13.060;2022-10-03T11:36:49;16.30;99.90
3017;DHT22;1518;52.408;13.060;2022-10-03T11:39:48;16.10;99.90
3017;DHT22;1518;52.408;13.060;2022-10-03T11:42:47;16.10;99.90
3017;DHT22;1518;52.408;13.060;2022-10-03T11:45:42;16.10;99.90
3017;DHT22;1518;52.408;13.060;2022-10-03T11:48:39;16.00;99.90
3017;DHT22;1518;52.408;13.060;2022-10-03T11:51:39;15.90;99.90
3017;DHT22;1518;52.408;13.060;2022-10-03T11:54:29;15.80;99.90
3017;DHT22;1518;52.408;13.060;2022-10-03T11:57:26;15.80;99.90
3017;DHT22;1518;52.408;13.060;2022-10-03T12:00:18;15.70;99.90
3017;DHT22;1518;52.408;13.060;2022-10-03T12:03:15;15.50;99.90
3017;DHT22;1518;52.408;13.060;2022-10-03T12:06:12;15.50;99.90
3017;DHT22;1518;52.408;13.060;2022-10-03T12:09:27;15.50;99.90
3017;DHT22;1518;52.408;13.060;2022-10-03T12:12:25;15.50;99.90
3017;DHT22;1518;52.408;13.060;2022-10-03T12:15:31;15.40;99.90
3017;DHT22;1518;52.408;13.060;2022-10-03T12:18:27;15.40;99.90
3017;DHT22;1518;52.408;13.060;2022-10-03T12:21:23;15.60;99.90
3017;DHT22;1518;52.408;13.060;2022-10-03T12:24:23;15.90;99.90
3017;DHT22;1518;52.408;13.060;2022-10-03T12:27:18;16.20;99.90
3017;DHT22;1518;52.408;13.060;2022-10-03T12:30:13;16.40;99.90
3017;DHT22;1518;52.408;13.060;2022-10-03T12:33:21;16.50;99.90
3017;DHT22;1518;52.408;13.060;2022-10-03T12:36:15;16.50;99.90
3017;DHT22;1518;52.408;13.060;2022-10-03T12:39:18;16.60;99.90
3017;DHT22;1518;52.408;13.060;2022-10-03T12:42:23;16.80;99.90
3017;DHT22;1518;52.408;13.060;2022-10-03T12:45:22;17.00;99.90
3017;DHT22;1518;52.408;13.060;2022-10-03T12:48:39;17.00;99.90
3017;DHT22;1518;52.408;13.060;2022-10-03T12:51:47;16.60;99.90
3017;DHT22;1518;52.408;13.060;2022-10-03T12:54:46;16.30;99.90
3017;DHT22;1518;52.408;13.060;2022-10-03T12:57:48;16.20;99.90
3017;DHT22;1518;52.408;13.060;2022-10-03T13:00:43;16.30;99.90
3017;DHT22;1518;52.408;13.060;2022-10-03T13:03:39;16.60;99.90
3017;DHT22;1518;52.408;13.060;2022-10-03T13:06:39;16.90;99.90
3017;DHT22;1518;52.408;13.060;2022-10-03T13:09:58;17.10;99.90
3017;DHT22;1518;52.408;13.060;2022-10-03T13:12:49;17.10;99.90
3017;DHT22;1518;52.408;13.060;2022-10-03T13:15:58;17.00;99.90
3017;DHT22;1518;52.408;13.060;2022-10-03T13:18:54;16.60;99.90
3017;DHT22;1518;52.408;13.060;2022-10-03T13:21:55;16.40;99.90
3017;DHT22;1518;52.408;13.060;2022-10-03T13:24:56;16.40;99.90
3017;DHT22;1518;52.408;13.060;2022-10-03T13:27:52;16.50;99.90
3017;DHT22;1518;52.408;13.060;2022-10-03T13:30:48;16.60;99.90
3017;DHT22;1518;52.408;13.060;2022-10-03T13:33:41;16.50;99.90
3017;DHT22;1518;52.408;13.060;2022-10-03T13:36:35;16.70;99.90
3017;DHT22;1518;52.408;13.060;2022-10-03T13:39:25;17.00;99.90
3017;DHT22;1518;52.408;13.060;2022-10-03T13:42:20;17.70;99.90
3017;DHT22;1518;52.408;13.060;2022-10-03T13:45:14;17.80;99.90
3017;DHT22;1518;52.408;13.060;2022-10-03T13:48:06;17.80;99.90
3017;DHT22;1518;52.408;13.060;2022-10-03T13:50:59;17.60;99.90
3017;DHT22;1518;52.408;13.060;2022-10-03T13:53:57;17.50;99.90
3017;DHT22;1518;52.408;13.060;2022-10-03T13:56:51;17.30;99.90
3017;DHT22;1518;52.408;13.060;2022-10-03T13:59:54;17.50;99.90
3017;DHT22;1518;52.408;13.060;2022-10-03T14:03:03;17.70;99.90
3017;DHT22;1518;52.408;13.060;2022-10-03T14:06:05;17.60;99.90
3017;DHT22;1518;52.408;13.060;2022-10-03T14:09:16;17.60;99.90
3017;DHT22;1518;52.408;13.060;2022-10-03T14:12:16;17.50;99.90
3017;DHT22;1518;52.408;13.060;2022-10-03T14:15:38;18.60;99.90
3017;DHT22;1518;52.408;13.060;2022-10-03T14:18:41;19.20;99.90
3017;DHT22;1518;52.408;13.060;2022-10-03T14:21:59;18.90;99.90
3017;DHT22;1518;52.408;13.060;2022-10-03T14:25:02;18.20;99.90
3017;DHT22;1518;52.408;13.060;2022-10-03T14:27:53;17.60;99.90
3017;DHT22;1518;52.408;13.060;2022-10-03T14:30:53;17.40;99.90
3017;DHT22;1518;52.408;13.060;2022-10-03T14:33:58;17.30;99.90
3017;DHT22;1518;52.408;13.060;2022-10-03T14:36:51;17.00;99.90
3017;DHT22;1518;52.408;13.060;2022-10-03T14:39:45;16.90;99.90
3017;DHT22;1518;52.408;13.060;2022-10-03T14:42:56;16.90;99.90
3017;DHT22;1518;52.408;13.060;2022-10-03T14:45:49;17.00;99.90
3017;DHT22;1518;52.408;13.060;2022-10-03T14:48:41;16.90;99.90
3017;DHT22;1518;52.408;13.060;2022-10-03T14:51:35;16.90;99.90
3017;DHT22;1518;52.408;13.060;2022-10-03T14:54:26;16.70;99.90
3017;DHT22;1518;52.408;13.060;2022-10-03T14:57:25;16.70;99.90
3017;DHT22;1518;52.408;13.060;2022-10-03T15:00:26;16.60;99.90
3017;DHT22;1518;52.408;13.060;2022-10-03T15:03:32;16.50;99.90
3017;DHT22;1518;52.408;13.060;2022-10-03T15:06:49;16.40;99.90
3017;DHT22;1518;52.408;13.060;2022-10-03T15:09:44;16.20;99.90
3017;DHT22;1518;52.408;13.060;2022-10-03T15:12:35;16.10;99.90
3017;DHT22;1518;52.408;13.060;2022-10-03T15:15:27;16.10;99.90
3017;DHT22;1518;52.408;13.060;2022-10-03T15:18:21;16.10;99.90
3017;DHT22;1518;52.408;13.060;2022-10-03T15:21:14;16.20;99.90
3017;DHT22;1518;52.408;13.060;2022-10-03T15:24:04;16.00;99.90
3017;DHT22;1518;52.408;13.060;2022-10-03T15:26:57;16.10;99.90
3017;DHT22;1518;52.408;13.060;2022-10-03T15:29:51;16.00;99.90
3017;DHT22;1518;52.408;13.060;2022-10-03T15:32:41;16.00;99.90
3017;DHT22;1518;52.408;13.060;2022-10-03T15:35:34;16.00;99.90
3017;DHT22;1518;52.408;13.060;2022-10-03T15:38:33;15.90;99.90
3017;DHT22;1518;52.408;13.060;2022-10-03T15:41:27;15.90;99.90
3017;DHT22;1518;52.408;13.060;2022-10-03T15:44:23;15.70;99.90
3017;DHT22;1518;52.408;13.060;2022-10-03T15:47:18;15.70;99.90
3017;DHT22;1518;52.408;13.060;2022-10-03T15:50:16;15.60;99.90
3017;DHT22;1518;52.408;13.060;2022-10-03T15:53:07;15.60;99.90
3017;DHT22;1518;52.408;13.060;2022-10-03T15:56:22;15.50;99.90
3017;DHT22;1518;52.408;13.060;2022-10-03T15:59:19;15.50;99.90
3017;DHT22;1518;52.408;13.060;2022-10-03T16:02:15;15.40;99.90
3017;DHT22;1518;52.408;13.060;2022-10-03T16:05:06;15.80;99.90
3017;DHT22;1518;52.408;13.060;2022-10-03T16:08:03;15.30;99.90
3017;DHT22;1518;52.408;13.060;2022-10-03T16:11:01;15.20;99.90
3017;DHT22;1518;52.408;13.060;2022-10-03T16:14:03;15.20;99.90
3017;DHT22;1518;52.408;13.060;2022-10-03T16:16:55;15.10;99.90
3017;DHT22;1518;52.408;13.060;2022-10-03T16:19:51;15.10;99.90
3017;DHT22;1518;52.408;13.060;2022-10-03T16:22:41;15.00;99.90
3017;DHT22;1518;52.408;13.060;2022-10-03T16:25:39;15.00;99.90
3017;DHT22;1518;52.408;13.060;2022-10-03T16:28:32;14.80;99.90
3017;DHT22;1518;52.408;13.060;2022-10-03T16:31:24;14.90;99.90
3017;DHT22;1518;52.408;13.060;2022-10-03T16:34:15;14.80;99.90
3017;DHT22;1518;52.408;13.060;2022-10-03T16:37:15;14.80;99.90
3017;DHT22;1518;52.408;13.060;2022-10-03T16:40:06;14.80;99.90
3017;DHT22;1518;52.408;13.060;2022-10-03T16:42:57;14.70;99.90
3017;DHT22;1518;52.408;13.060;2022-10-03T16:45:46;14.70;99.90
3017;DHT22;1518;52.408;13.060;2022-10-03T16:48:36;14.60;99.90
3017;DHT22;1518;52.408;13.060;2022-10-03T16:51:50;14.60;99.90
3017;DHT22;1518;52.408;13.060;2022-10-03T16:54:41;14.60;99.90
3017;DHT22;1518;52.408;13.060;2022-10-03T16:57:40;14.50;99.90
3017;DHT22;1518;52.408;13.060;2022-10-03T17:00:34;14.50;99.90
3017;DHT22;1518;52.408;13.060;2022-10-03T17:03:29;14.50;99.90
3017;DHT22;1518;52.408;13.060;2022-10-03T17:06:22;14.50;99.90
3017;DHT22;1518;52.408;13.060;2022-10-03T17:09:24;14.50;99.90
3017;DHT22;1518;52.408;13.060;2022-10-03T17:12:16;14.40;99.90
3017;DHT22;1518;52.408;13.060;2022-10-03T17:15:07;14.40;99.90
3017;DHT22;1518;52.408;13.060;2022-10-03T17:18:10;14.40;99.90
3017;DHT22;1518;52.408;13.060;2022-10-03T17:21:07;14.30;99.90
3017;DHT22;1518;52.408;13.060;2022-10-03T17:24:06;14.30;99.90
3017;DHT22;1518;52.408;13.060;2022-10-03T17:26:59;14.20;99.90
3017;DHT22;1518;52.408;13.060;2022-10-03T17:29:53;14.20;99.90
3017;DHT22;1518;52.408;13.060;2022-10-03T17:32:44;14.30;99.90
3017;DHT22;1518;52.408;13.060;2022-10-03T17:35:44;14.30;99.90
3017;DHT22;1518;52.408;13.060;2022-10-03T17:38:41;14.30;99.90
3017;DHT22;1518;52.408;13.060;2022-10-03T17:41:40;14.40;99.90
3017;DHT22;1518;52.408;13.060;2022-10-03T17:44:34;14.40;99.90
3017;DHT22;1518;52.408;13.060;2022-10-03T17:47:31;14.40;99.90
3017;DHT22;1518;52.408;13.060;2022-10-03T17:50:26;14.40;99.90
3017;DHT22;1518;52.408;13.060;2022-10-03T17:53:19;14.40;99.90
3017;DHT22;1518;52.408;13.060;2022-10-03T17:56:11;14.40;99.90
3017;DHT22;1518;52.408;13.060;2022-10-03T17:59:03;14.40;99.90
3017;DHT22;1518;52.408;13.060;2022-10-03T18:01:54;14.30;99.90
3017;DHT22;1518;52.408;13.060;2022-10-03T18:04:46;14.10;99.90
3017;DHT22;1518;52.408;13.060;2022-10-03T18:07:40;14.10;99.90
3017;DHT22;1518;52.408;13.060;2022-10-03T18:10:33;14.00;99.90
3017;DHT22;1518;52.408;13.060;2022-10-03T18:13:27;13.80;99.90
3017;DHT22;1518;52.408;13.060;2022-10-03T18:16:20;13.90;99.90
3017;DHT22;1518;52.408;13.060;2022-10-03T18:19:23;13.90;99.90
3017;DHT22;1518;52.408;13.060;2022-10-03T18:22:18;14.00;99.90
3017;DHT22;1518;52.408;13.060;2022-10-03T18:25:13;14.00;99.90
3017;DHT22;1518;52.408;13.060;2022-10-03T18:29:00;14.10;99.90
3017;DHT22;1518;52.408;13.060;2022-10-03T18:32:09;14.00;99.90
3017;DHT22;1518;52.408;13.060;2022-10-03T18:35:06;14.00;99.90
3017;DHT22;1518;52.408;13.060;2022-10-03T18:38:04;13.90;99.90
3017;DHT22;1518;52.408;13.060;2022-10-03T18:40:54;13.90;99.90
3017;DHT22;1518;52.408;13.060;2022-10-03T18:43:44;13.90;99.90
3017;DHT22;1518;52.408;13.060;2022-10-03T18:46:40;13.90;99.90
3017;DHT22;1518;52.408;13.060;2022-10-03T18:49:31;13.90;99.90
3017;DHT22;1518;52.408;13.060;2022-10-03T18:52:24;14.00;99.90
3017;DHT22;1518;52.408;13.060;2022-10-03T18:55:21;14.00;99.90
3017;DHT22;1518;52.408;13.060;2022-10-03T18:58:17;14.00;99.90
3017;DHT22;1518;52.408;13.060;2022-10-03T19:01:15;13.90;99.90
3017;DHT22;1518;52.408;13.060;2022-10-03T19:04:07;13.90;99.90
3017;DHT22;1518;52.408;13.060;2022-10-03T19:06:57;13.90;99.90
3017;DHT22;1518;52.408;13.060;2022-10-03T19:10:23;14.00;99.90
3017;DHT22;1518;52.408;13.060;2022-10-03T19:13:24;14.00;99.90
3017;DHT22;1518;52.408;13.060;2022-10-03T19:16:20;14.10;99.90
3017;DHT22;1518;52.408;13.060;2022-10-03T19:19:18;14.10;99.90
3017;DHT22;1518;52.408;13.060;2022-10-03T19:22:12;14.20;99.90
3017;DHT22;1518;52.408;13.060;2022-10-03T19:25:04;14.20;99.90
3017;DHT22;1518;52.408;13.060;2022-10-03T19:27:57;14.20;99.90
3017;DHT22;1518;52.408;13.060;2022-10-03T19:30:55;14.20;99.90
3017;DHT22;1518;52.408;13.060;2022-10-03T19:33:47;14.10;99.90
3017;DHT22;1518;52.408;13.060;2022-10-03T19:36:38;14.10;99.90
3017;DHT22;1518;52.408;13.060;2022-10-03T19:39:30;14.10;99.90
3017;DHT22;1518;52.408;13.060;2022-10-03T19:42:26;14.10;99.90
3017;DHT22;1518;52.408;13.060;2022-10-03T19:45:18;14.00;99.90
3017;DHT22;1518;52.408;13.060;2022-10-03T19:48:09;14.00;99.90
3017;DHT22;1518;52.408;13.060;2022-10-03T19:51:08;14.00;99.90
3017;DHT22;1518;52.408;13.060;2022-10-03T19:53:59;13.90;99.90
3017;DHT22;1518;52.408;13.060;2022-10-03T19:56:50;13.90;99.90
3017;DHT22;1518;52.408;13.060;2022-10-03T19:59:43;13.80;99.90
3017;DHT22;1518;52.408;13.060;2022-10-03T20:02:32;13.70;99.90
3017;DHT22;1518;52.408;13.060;2022-10-03T20:05:24;13.50;99.90
3017;DHT22;1518;52.408;13.060;2022-10-03T20:08:21;13.50;99.90
3017;DHT22;1518;52.408;13.060;2022-10-03T20:11:23;13.50;99.90
3017;DHT22;1518;52.408;13.060;2022-10-03T20:14:16;13.40;99.90
3017;DHT22;1518;52.408;13.060;2022-10-03T20:17:10;13.40;99.90
3017;DHT22;1518;52.408;13.060;2022-10-03T20:20:03;13.50;99.90
3017;DHT22;1518;52.408;13.060;2022-10-03T20:22:53;13.60;99.90
3017;DHT22;1518;52.408;13.060;2022-10-03T20:25:45;13.60;99.90
3017;DHT22;1518;52.408;13.060;2022-10-03T20:28:50;13.60;99.90
3017;DHT22;1518;52.408;13.060;2022-10-03T20:31:44;13.60;99.90
3017;DHT22;1518;52.408;13.060;2022-10-03T20:34:35;13.70;99.90
3017;DHT22;1518;52.408;13.060;2022-10-03T20:37:39;13.70;99.90
3017;DHT22;1518;52.408;13.060;2022-10-03T20:40:33;13.80;99.90
3017;DHT22;1518;52.408;13.060;2022-10-03T20:43:31;13.70;99.90
3017;DHT22;1518;52.408;13.060;2022-10-03T20:46:34;13.60;99.90
3017;DHT22;1518;52.408;13.060;2022-10-03T20:49:29;13.60;99.90
3017;DHT22;1518;52.408;13.060;2022-10-03T20:52:20;13.70;99.90
3017;DHT22;1518;52.408;13.060;2022-10-03T20:55:18;13.60;99.90
3017;DHT22;1518;52.408;13.060;2022-10-03T20:58:14;13.60;99.90
3017;DHT22;1518;52.408;13.060;2022-10-03T21:01:07;13.50;99.90
3017;DHT22;1518;52.408;13.060;2022-10-03T21:04:03;13.50;99.90
3017;DHT22;1518;52.408;13.060;2022-10-03T21:06:56;13.30;99.90
3017;DHT22;1518;52.408;13.060;2022-10-03T21:09:49;13.30;99.90
3017;DHT22;1518;52.408;13.060;2022-10-03T21:12:44;13.20;99.90
3017;DHT22;1518;52.408;13.060;2022-10-03T21:15:37;13.20;99.90
3017;DHT22;1518;52.408;13.060;2022-10-03T21:18:29;13.20;99.90
3017;DHT22;1518;52.408;13.060;2022-10-03T21:21:22;13.20;99.90
3017;DHT22;1518;52.408;13.060;2022-10-03T21:24:15;13.20;99.90
3017;DHT22;1518;52.408;13.060;2022-10-03T21:27:06;13.20;99.90